Latest Weather Observations for Double Island Point

IDQ60901

Issued at 8:51 pm EST Saturday 16 December 2017 (issued every 10 minutes, with the page automatically refreshed every 10 minutes)

About weather observations | Map of Brisbane area stations | Latest observations for Brisbane area | Other Formats
Station Details ID: 040068 Name: DOUBLE ISLAND POINT LIGHTHOUSE Lat: -25.93 Lon: 153.19 Height: 95.64 m
Data from the previous 72 hours. | See also: Recent months at Double Island Point
Date/Time
EST
Temp
°C
App
Temp
°C
Dew
Point
°C
Rel
Hum
%
Delta-T
°C
Wind Press
QNH
hPa
Press
MSL
hPa
Rain since
9am
mm
Dir  Spd
km/h
Gust
km/h
Spd
kts
Gust
kts
16/08:30pm 24.5 23.6 19.8 75 3.0 ENE 24 30 13 16 1015.5 1015.0 0.0
16/08:00pm 24.6 23.7 19.9 75 3.0 ENE 24 28 13 15 1015.2 1014.7 0.0
16/07:30pm 24.5 23.9 20.6 79 2.6 E 24 28 13 15 1015.0 1014.5 0.0
16/07:00pm 24.5 23.3 20.0 76 2.9 ENE 26 32 14 17 1014.8 1014.3 0.0
16/06:30pm 24.7 24.3 20.2 76 2.9 ENE 22 28 12 15 1014.6 1014.1 0.0
16/06:00pm 25.2 24.9 19.6 71 3.6 E 20 24 11 13 1014.3 1013.8 0.0
16/05:30pm 25.7 24.4 19.8 70 3.8 E 26 30 14 16 1014.1 1013.6 0.0
16/05:00pm 26.1 26.2 21.1 74 3.3 E 22 26 12 14 1014.0 1013.5 0.0
16/04:30pm 26.4 26.3 21.4 74 3.3 E 24 28 13 15 1013.8 1013.3 0.0
16/04:00pm 26.7 27.0 20.5 69 4.1 E 19 24 10 13 1013.8 1013.3 0.0
16/03:30pm 27.2 26.7 20.8 68 4.2 E 24 28 13 15 1013.8 1013.3 0.0
16/03:00pm 27.3 27.6 20.4 66 4.5 E 19 22 10 12 1014.2 1013.7 0.0
16/02:30pm 27.7 28.8 20.5 65 4.8 E 15 17 8 9 1014.6 1014.1 0.0
16/02:00pm 28.2 29.2 21.0 65 4.8 E 17 20 9 11 1014.8 1014.3 0.0
16/01:30pm 28.1 28.9 21.4 67 4.5 E 19 20 10 11 1015.2 1014.7 0.0
16/01:00pm 28.1 29.1 21.1 65 4.7 E 17 19 9 10 1015.3 1014.8 0.0
16/12:30pm 28.7 29.3 21.0 63 5.1 E 19 20 10 11 1015.7 1015.2 0.0
16/12:00pm 28.9 29.8 20.9 62 5.3 ENE 17 20 9 11 1016.0 1015.5 0.0
16/11:30am 28.6 29.0 20.6 62 5.3 E 19 20 10 11 1016.3 1015.8 0.0
16/11:00am 29.8 31.0 20.6 57 6.1 ENE 15 20 8 11 1016.5 1016.0 0.0
16/10:30am 29.0 30.0 21.0 62 5.3 ENE 17 20 9 11 1016.7 1016.2 0.0
16/10:00am 28.2 28.6 20.7 63 5.0 ENE 19 20 10 11 1016.7 1016.2 0.0
16/09:30am 27.6 27.9 20.4 65 4.7 ENE 19 24 10 13 1016.7 1016.2 0.0
16/09:00am 27.6 28.4 21.4 69 4.1 ENE 19 24 10 13 1016.6 1016.1 1.0
16/08:30am 27.3 27.0 21.1 69 4.1 ENE 24 28 13 15 1016.5 1016.0 1.0
16/08:00am 26.9 26.4 20.7 69 4.1 ENE 24 28 13 15 1016.2 1015.7 1.0
16/07:30am 26.2 26.2 20.1 69 4.0 ENE 20 26 11 14 1016.0 1015.5 1.0
16/07:00am 25.8 26.0 20.6 73 3.4 ENE 20 26 11 14 1015.7 1015.2 1.0
16/06:30am 25.4 24.7 20.2 73 3.4 ENE 24 26 13 14 1015.4 1014.9 1.0
16/06:00am 25.0 24.4 20.5 76 2.9 ENE 24 28 13 15 1015.1 1014.6 1.0
16/05:30am 24.3 23.4 20.6 80 2.4 ENE 26 30 14 16 1014.8 1014.3 1.0
16/05:00am 23.8 22.5 20.7 83 2.0 ENE 28 32 15 17 1014.3 1013.8 1.0
16/04:30am 23.6 23.7 21.1 86 1.6 E 22 26 12 14 1013.9 1013.4 1.0
16/04:00am 23.8 24.0 21.3 86 1.7 ENE 22 26 12 14 1013.7 1013.2 1.0
16/03:30am 23.5 23.6 21.2 87 1.5 E 22 28 12 15 1013.6 1013.1 1.0
16/03:00am 23.6 22.9 21.1 86 1.6 ENE 26 28 14 15 1013.3 1012.9 1.0
16/02:30am 23.6 24.4 21.7 89 1.3 E 20 30 11 16 1013.2 1012.8 1.0
16/02:00am 23.3 24.5 21.4 89 1.3 E 17 20 9 11 1013.2 1012.8 1.0
16/01:30am 23.5 24.8 21.6 89 1.3 ENE 17 20 9 11 1013.6 1013.1 1.0
16/01:00am 23.0 24.9 21.3 90 1.1 E 13 15 7 8 1013.8 1013.3 1.0
16/12:30am 22.9 24.6 21.0 89 1.2 E 13 17 7 9 1014.0 1013.5 1.0
16/12:00am 22.5 25.9 20.2 87 1.5 NE 2 7 1 4 1014.3 1013.8 1.0
 
Date/Time
EST
Temp
°C
App
Temp
°C
Dew
Point
°C
Rel
Hum
%
Delta-T
°C
Wind Press
QNH
hPa
Press
MSL
hPa
Rain since
9am
mm
Dir  Spd
km/h
Gust
km/h
Spd
kts
Gust
kts
15/11:30pm 22.9 24.7 21.2 90 1.1 ENE 13 17 7 9 1014.5 1014.0 0.8
15/11:00pm 23.0 23.9 21.6 92 0.9 E 19 20 10 11 1014.7 1014.2 0.8
15/10:30pm 23.3 21.4 21.0 87 1.5 E 32 35 17 19 1014.7 1014.2 0.0
15/10:00pm 24.0 24.0 20.9 83 2.0 E 22 26 12 14 1014.7 1014.2 0.0
15/09:30pm 23.9 24.2 20.8 83 2.0 E 20 24 11 13 1014.7 1014.2 0.0
15/09:00pm 24.1 23.7 21.0 83 2.0 E 24 28 13 15 1014.5 1014.0 0.0
15/08:30pm 24.1 24.0 20.8 82 2.2 E 22 26 12 14 1014.2 1013.7 0.0
15/08:00pm 24.3 25.8 24.3 100 0.0 E 24 26 13 14 1013.9 1013.4 0.0
15/07:30pm 24.1 23.8 19.6 76 2.9 E 20 24 11 13 1013.6 1013.1 0.0
15/07:00pm 24.1 23.6 21.4 85 1.8 E 26 32 14 17 1013.2 1012.8 0.0
15/06:30pm 24.4 23.9 20.7 80 2.4 E 24 30 13 16 1013.0 1012.5 0.0
15/06:00pm 24.6 23.8 20.9 80 2.4 E 26 30 14 16 1012.6 1012.1 0.0
15/05:30pm 25.1 24.5 21.2 79 2.6 E 26 28 14 15 1012.2 1011.7 0.0
15/05:00pm 25.7 24.8 20.7 74 3.3 E 26 32 14 17 1011.8 1011.3 0.0
15/04:30pm 25.8 25.0 20.8 74 3.3 E 26 30 14 16 1011.7 1011.2 0.0
15/04:00pm 26.1 26.0 20.7 72 3.6 ESE 22 26 12 14 1011.6 1011.1 0.0
15/03:30pm 26.1 24.7 20.4 71 3.7 ESE 28 32 15 17 1011.7 1011.2 0.0
15/03:00pm 26.3 25.3 20.4 70 3.9 ESE 26 32 14 17 1011.8 1011.3 0.0
15/02:30pm 26.7 26.2 20.8 70 3.9 ESE 24 28 13 15 1011.9 1011.4 0.0
15/02:00pm 26.8 26.3 19.9 66 4.5 ESE 22 28 12 15 1012.2 1011.7 0.0
15/01:30pm 27.3 26.3 20.4 66 4.5 ESE 26 32 14 17 1012.2 1011.7 0.0
15/01:00pm 27.3 26.4 19.9 64 4.8 ESE 24 28 13 15 1012.5 1012.0 0.0
15/12:30pm 27.4 26.9 20.0 64 4.8 SE 22 26 12 14 1012.8 1012.3 0.0
15/12:00pm 27.2 27.2 19.8 64 4.8 SE 19 24 10 13 1013.1 1012.6 0.0
15/11:30am 27.4 26.9 19.2 61 5.3 SE 20 22 11 12 1013.6 1013.1 0.0
15/11:00am 27.3 26.8 18.6 59 5.6 SE 19 20 10 11 1013.7 1013.2 0.0
15/10:30am 27.2 26.8 18.8 60 5.4 SE 19 22 10 12 1013.9 1013.4 0.0
15/10:00am 27.0 27.1 19.9 65 4.6 SE 19 22 10 12 1013.8 1013.3 0.0
15/09:30am 27.0 26.7 19.1 62 5.1 SE 19 20 10 11 1013.9 1013.4 0.0
15/09:00am 26.7 26.8 19.1 63 4.9 SE 17 19 9 10 1013.9 1013.4 0.0
15/08:30am 26.3 27.2 19.2 65 4.6 SE 13 17 7 9 1013.9 1013.4 0.0
15/08:00am 25.9 26.2 17.8 61 5.1 ESE 13 19 7 10 1013.7 1013.2 0.0
15/07:30am 26.7 27.9 19.8 66 4.5 ESE 13 17 7 9 1013.6 1013.1 0.0
15/07:00am 26.7 27.8 19.6 65 4.6 E 13 19 7 10 1013.5 1013.0 0.0
15/06:30am 25.9 26.8 19.3 67 4.3 E 13 17 7 9 1013.2 1012.8 0.0
15/06:00am 25.2 26.0 19.1 69 3.9 E 13 15 7 8 1012.9 1012.4 0.0
15/05:30am 24.2 24.6 19.1 73 3.3 ENE 15 17 8 9 1012.6 1012.1 0.0
15/05:00am 23.3 23.6 18.8 76 2.9 ENE 15 17 8 9 1012.4 1011.9 0.0
15/04:30am 22.9 23.0 18.4 76 2.8 ENE 15 19 8 10 1011.9 1011.4 0.0
15/04:00am 23.1 23.4 18.8 77 2.7 ENE 15 19 8 10 1011.5 1011.0 0.0
15/03:30am 23.2 24.1 19.2 78 2.6 ENE 13 15 7 8 1011.3 1010.8 0.0
15/03:00am 23.2 23.9 18.9 77 2.7 NE 13 19 7 10 1011.3 1010.8 0.0
15/02:30am 23.2 23.8 18.7 76 2.9 NE 13 17 7 9 1011.3 1010.8 0.0
15/02:00am 23.1 23.6 19.3 79 2.4 NE 15 20 8 11 1011.3 1010.8 0.0
15/01:30am 23.2 23.4 19.4 79 2.4 NE 17 22 9 12 1011.3 1010.8 0.0
15/01:00am 23.0 23.8 19.0 78 2.5 NE 13 20 7 11 1011.5 1011.0 0.0
15/12:30am 23.2 23.8 19.4 79 2.4 NE 15 19 8 10 1011.9 1011.4 0.0
15/12:00am 23.4 23.2 18.5 74 3.1 ENE 17 20 9 11 1012.2 1011.7 0.0
 
Date/Time
EST
Temp
°C
App
Temp
°C
Dew
Point
°C
Rel
Hum
%
Delta-T
°C
Wind Press
QNH
hPa
Press
MSL
hPa
Rain since
9am
mm
Dir  Spd
km/h
Gust
km/h
Spd
kts
Gust
kts
14/11:30pm 23.4 23.2 19.3 78 2.6 NE 19 22 10 12 1012.6 1012.1 0.0
14/11:00pm 23.7 23.2 19.2 76 2.9 ENE 20 26 11 14 1012.8 1012.3 0.0
14/10:30pm 23.8 23.4 19.3 76 2.9 ENE 20 24 11 13 1013.0 1012.5 0.0
14/10:00pm 23.8 22.1 16.3 63 4.6 ENE 20 24 11 13 1013.2 1012.8 0.0
14/09:30pm 23.8 22.7 17.3 67 4.0 ENE 19 22 10 12 1013.3 1012.9 0.0
14/09:00pm 23.7 24.3 21.0 85 1.8 E 19 22 10 12 1013.5 1013.0 0.0
14/08:30pm 23.8 22.3 16.8 65 4.3 E 20 22 11 12 1013.2 1012.8 0.0
14/08:00pm 23.8 23.3 19.1 75 3.0 E 20 22 11 12 1012.9 1012.4 0.0
14/07:30pm 23.8 23.1 18.7 73 3.2 E 20 22 11 12 1012.8 1012.3 0.0
14/07:00pm 23.9 23.1 18.5 72 3.4 ESE 20 24 11 13 1012.4 1011.9 0.0
14/06:30pm 24.1 23.2 17.8 68 4.0 ESE 19 22 10 12 1012.2 1011.7 0.0
14/06:00pm 24.5 23.4 18.7 70 3.7 ESE 22 24 12 13 1011.9 1011.4 0.0
14/05:30pm 24.7 23.9 18.4 68 4.0 ESE 20 24 11 13 1011.7 1011.2 0.0
14/05:00pm 25.0 24.0 18.9 69 3.9 SE 22 26 12 14 1011.5 1011.0 0.0
14/04:30pm 25.2 22.6 15.8 56 5.7 SE 24 28 13 15 1011.3 1010.8 0.0
14/04:00pm 25.5 24.1 18.9 67 4.2 SE 24 28 13 15 1011.1 1010.6 0.0
14/03:30pm 26.0 25.0 19.6 68 4.2 SE 24 28 13 15 1011.2 1010.7 0.0
14/03:00pm 25.9 24.6 19.1 66 4.4 SE 24 28 13 15 1011.2 1010.7 0.0
14/02:30pm 26.5 25.2 19.1 64 4.8 SE 24 26 13 14 1011.4 1010.9 0.0
14/02:00pm 26.3 24.9 18.7 63 4.9 SE 24 28 13 15 1011.6 1011.1 0.0
14/01:30pm 26.5 25.1 18.9 63 4.9 SE 24 28 13 15 1011.6 1011.1 0.0
14/01:00pm 26.8 25.9 18.1 59 5.5 SE 20 26 11 14 1011.8 1011.3 0.0
14/12:30pm 26.9 26.2 18.2 59 5.5 SE 19 24 10 13 1012.1 1011.6 0.0
14/12:00pm 26.6 24.8 15.6 50 6.7 SE 19 22 10 12 1012.2 1011.7 0.0
14/11:30am 27.3 27.0 19.1 61 5.3 SE 19 22 10 12 1012.5 1012.0 0.0
14/11:00am 27.0 26.8 18.6 60 5.4 ESE 17 20 9 11 1012.8 1012.3 0.0
14/10:30am 26.5 26.3 17.6 58 5.6 ESE 15 19 8 10 1013.0 1012.5 0.0
14/10:00am 26.7 26.6 17.8 58 5.6 E 15 17 8 9 1013.5 1013.0 0.0
14/09:30am 26.8 27.2 18.1 59 5.5 E 13 17 7 9 1013.7 1013.2 0.0
14/09:00am 26.1 25.8 18.2 61 5.0 ESE 17 20 9 11 1013.8 1013.3 0.0
14/08:30am 25.3 24.1 16.2 57 5.6 SE 17 20 9 11 1013.9 1013.4 0.0
14/08:00am 25.9 24.4 16.7 57 5.7 SE 20 24 11 13 1013.6 1013.1 0.0
14/07:30am 25.4 24.1 16.8 59 5.3 ESE 19 22 10 12 1013.8 1013.3 0.0
14/07:00am 25.3 24.0 16.7 59 5.3 ESE 19 22 10 12 1013.7 1013.2 0.0
14/06:30am 24.9 23.3 16.6 60 5.1 SE 20 24 11 13 1013.5 1013.0 0.0
14/06:00am 24.3 22.8 16.8 63 4.6 ESE 20 26 11 14 1013.1 1012.6 0.0
14/05:30am 23.7 21.9 17.0 66 4.1 ESE 22 26 12 14 1012.7 1012.2 0.0
14/05:00am 22.8 20.9 15.1 62 4.6 ESE 19 22 10 12 1012.5 1012.0 0.0
14/04:30am 22.6 21.0 16.4 68 3.8 ESE 20 24 11 13 1012.3 1011.8 0.0
14/04:00am 22.5 22.5 19.7 84 1.8 ESE 19 22 10 12 1012.2 1011.7 0.0
14/03:30am 22.5 21.9 18.5 78 2.5 ESE 19 24 10 13 1012.2 1011.7 0.0
14/03:00am 22.6 19.7 13.9 58 5.1 ESE 22 26 12 14 1012.2 1011.7 0.0
14/02:30am 22.7 20.7 16.5 68 3.8 ESE 22 26 12 14 1012.4 1011.9 0.0
14/02:00am 22.6 21.2 17.1 71 3.4 E 20 24 11 13 1012.6 1012.1 0.0
14/01:30am 22.5 18.1 7.5 38 7.8 E 20 26 11 14 1012.6 1012.1 0.0
14/01:00am 22.7 20.1 14.8 61 4.7 E 22 28 12 15 1013.0 1012.5 0.0
14/12:30am 22.8 20.5 17.5 72 3.3 E 26 30 14 16 1013.2 1012.8 0.0
14/12:00am 22.8 19.5 14.9 61 4.7 E 26 32 14 17 1013.8 1013.3 0.0
 
Date/Time
EST
Temp
°C
App
Temp
°C
Dew
Point
°C
Rel
Hum
%
Delta-T
°C
Wind Press
QNH
hPa
Press
MSL
hPa
Rain since
9am
mm
Dir  Spd
km/h
Gust
km/h
Spd
kts
Gust
kts
13/11:30pm 22.9 19.8 17.6 72 3.3 E 30 35 16 19 1014.2 1013.7 0.0
13/11:00pm 23.0 19.8 17.2 70 3.6 ESE 30 35 16 19 1014.6 1014.1 0.0
13/10:30pm 23.1 19.7 17.6 71 3.4 ESE 32 35 17 19 1014.9 1014.4 0.0
13/10:00pm 23.1 19.7 17.8 72 3.3 ESE 32 35 17 19 1014.8 1014.3 0.0
13/09:30pm 23.2 21.3 20.9 87 1.5 ESE 32 35 17 19 1014.8 1014.3 0.0
13/09:00pm 23.3 20.0 18.0 72 3.3 ESE 32 37 17 20 1014.9 1014.4 0.0

Latest Capital City Observations: Canberra | Sydney | Melbourne | Brisbane | Adelaide | Perth | Hobart | Darwin

Other Formats:

Comma delimited format used in spreadsheet applications
http://www.bom.gov.au/fwo/IDQ60901/IDQ60901.94584.axf

JavaScript Object Notation format (JSON) in row-major order
http://www.bom.gov.au/fwo/IDQ60901/IDQ60901.94584.json